createdAt,value
2017-11-21T00:00:00.319Z,98330.82
2017-11-21T00:02:27.778Z,98332.72
2017-11-21T00:04:55.265Z,98334.02
2017-11-21T00:07:22.760Z,98330.08
2017-11-21T00:09:50.215Z,98324.36
2017-11-21T00:12:17.669Z,98322.13
2017-11-21T00:14:45.369Z,98317.70
2017-11-21T00:17:12.834Z,98310.39
2017-11-21T00:19:40.298Z,98308.72
2017-11-21T00:22:07.793Z,98311.66
2017-11-21T00:24:35.273Z,98311.87
2017-11-21T00:27:02.750Z,98311.02
2017-11-21T00:29:30.233Z,98303.98
2017-11-21T00:31:57.714Z,98297.95
2017-11-21T00:34:25.356Z,98289.52
2017-11-21T00:36:52.813Z,98291.91
2017-11-21T00:39:20.278Z,98291.48
2017-11-21T00:41:47.754Z,98296.57
2017-11-21T00:44:15.221Z,98294.26
2017-11-21T00:46:42.707Z,98289.94
2017-11-21T00:49:10.170Z,98284.17
2017-11-21T00:51:37.646Z,98286.04
2017-11-21T00:54:05.096Z,98287.23
2017-11-21T00:56:32.583Z,98279.56
2017-11-21T00:59:00.046Z,98285.87
2017-11-21T01:01:27.532Z,98277.00
2017-11-21T01:03:55.024Z,98274.86
2017-11-21T01:06:22.510Z,98278.27
2017-11-21T01:08:49.970Z,98272.56
2017-11-21T01:11:17.459Z,98265.99
2017-11-21T01:13:44.952Z,98272.36
2017-11-21T01:16:12.419Z,98265.95
2017-11-21T01:18:39.922Z,98264.25
2017-11-21T01:21:07.384Z,98264.63
2017-11-21T01:23:34.835Z,98266.50
2017-11-21T01:26:02.323Z,98267.78
2017-11-21T01:28:29.800Z,98254.80
2017-11-21T01:30:57.276Z,98260.08
2017-11-21T01:33:24.742Z,98255.86
2017-11-21T01:35:52.218Z,98256.05
2017-11-21T01:38:19.714Z,98251.19
2017-11-21T01:40:47.158Z,98242.40
2017-11-21T01:43:14.635Z,98227.96
2017-11-21T01:45:42.083Z,98239.72
2017-11-21T01:48:09.528Z,98229.80
2017-11-21T01:50:37.000Z,98242.50
2017-11-21T01:53:04.444Z,98239.50
2017-11-21T01:55:31.910Z,98243.64
2017-11-21T01:57:59.355Z,98234.53
2017-11-21T02:00:26.848Z,98237.77
2017-11-21T02:03:04.954Z,98232.10
2017-11-21T02:05:32.430Z,98231.55
2017-11-21T02:07:59.892Z,98229.47
2017-11-21T02:10:27.341Z,98231.80
2017-11-21T02:12:54.813Z,98224.30
2017-11-21T02:15:22.292Z,98223.63
2017-11-21T02:17:49.746Z,98220.90
2017-11-21T02:20:17.350Z,98219.27
2017-11-21T02:22:44.805Z,98224.80
2017-11-21T02:25:12.282Z,98232.80
2017-11-21T02:27:39.735Z,98240.16
2017-11-21T02:30:07.222Z,98236.75
2017-11-21T02:32:34.677Z,98240.73
2017-11-21T02:35:02.160Z,98247.70
2017-11-21T02:37:30.018Z,98242.95
2017-11-21T02:39:57.472Z,98236.58
2017-11-21T02:42:24.926Z,98229.02
2017-11-21T02:44:52.407Z,98225.97
2017-11-21T02:47:19.874Z,98233.56
2017-11-21T02:49:47.346Z,98227.70
2017-11-21T02:52:14.803Z,98225.35
2017-11-21T02:54:42.284Z,98225.98
2017-11-21T02:57:09.734Z,98218.73
2017-11-21T02:59:37.212Z,98220.38
2017-11-21T03:02:04.986Z,98218.95
2017-11-21T03:04:32.447Z,98224.38
2017-11-21T03:06:59.918Z,98215.45
2017-11-21T03:09:27.404Z,98232.33
2017-11-21T03:11:54.860Z,98224.63
2017-11-21T03:14:22.354Z,98225.24
2017-11-21T03:16:49.804Z,98229.72
2017-11-21T03:19:17.251Z,98221.00
2017-11-21T03:21:56.466Z,98224.25
2017-11-21T03:24:35.612Z,98217.94
2017-11-21T03:27:11.776Z,98217.61
2017-11-21T03:29:39.230Z,98218.19
2017-11-21T03:32:06.725Z,98209.02
2017-11-21T03:34:34.187Z,98201.44
2017-11-21T03:37:01.672Z,98193.00
2017-11-21T03:39:29.161Z,98194.70
2017-11-21T03:41:56.640Z,98201.87
2017-11-21T03:44:24.100Z,98213.50
2017-11-21T03:46:51.570Z,98226.57
2017-11-21T03:49:19.054Z,98217.05
2017-11-21T03:51:46.515Z,98214.88
2017-11-21T03:54:14.003Z,98215.30
2017-11-21T03:56:41.471Z,98204.81
2017-11-21T03:59:08.953Z,98204.77
2017-11-21T04:01:36.401Z,98203.84
2017-11-21T04:04:03.878Z,98202.97
2017-11-21T04:06:31.331Z,98204.60
2017-11-21T04:08:58.795Z,98204.13
2017-11-21T04:11:26.277Z,98212.93
2017-11-21T04:13:53.737Z,98208.81
2017-11-21T04:16:21.233Z,98203.20
2017-11-21T04:18:48.715Z,98205.81
2017-11-21T04:21:16.167Z,98208.66
2017-11-21T04:23:43.662Z,98203.42
2017-11-21T04:26:11.122Z,98210.41
2017-11-21T04:28:38.591Z,98202.28
2017-11-21T04:31:06.073Z,98212.38
2017-11-21T04:33:33.563Z,98213.53
2017-11-21T04:36:01.025Z,98210.20
2017-11-21T04:38:28.502Z,98218.08
2017-11-21T04:40:55.962Z,98220.98
2017-11-21T04:43:23.439Z,98210.84
2017-11-21T04:45:50.920Z,98209.02
2017-11-21T04:48:18.382Z,98208.57
2017-11-21T04:50:45.878Z,98207.48
2017-11-21T04:53:13.342Z,98208.69
2017-11-21T04:55:40.804Z,98207.74
2017-11-21T04:58:08.296Z,98203.31
2017-11-21T05:00:35.937Z,98199.70
2017-11-21T05:03:03.417Z,98205.23
2017-11-21T05:05:30.886Z,98206.96
2017-11-21T05:07:58.360Z,98201.22
2017-11-21T05:10:25.819Z,98202.34
2017-11-21T05:12:53.308Z,98202.23
2017-11-21T05:15:20.776Z,98197.03
2017-11-21T05:17:48.246Z,98207.29
2017-11-21T05:20:15.729Z,98199.41
2017-11-21T05:22:43.228Z,98199.51
2017-11-21T05:25:10.698Z,98204.67
2017-11-21T05:27:38.158Z,98204.13
2017-11-21T05:30:05.646Z,98209.23
2017-11-21T05:32:45.148Z,98203.41
2017-11-21T05:35:12.647Z,98207.28
2017-11-21T05:37:40.113Z,98203.73
2017-11-21T05:40:07.594Z,98205.45
2017-11-21T05:42:35.056Z,98203.29
2017-11-21T05:45:02.547Z,98196.55
2017-11-21T05:47:30.032Z,98213.72
2017-11-21T05:49:57.712Z,98209.97
2017-11-21T05:52:25.173Z,98205.74
2017-11-21T05:54:52.658Z,98205.64
2017-11-21T05:57:20.121Z,98223.70
2017-11-21T05:59:47.591Z,98228.19
2017-11-21T06:02:15.053Z,98223.33
2017-11-21T06:04:42.524Z,98235.48
2017-11-21T06:07:09.981Z,98225.52
2017-11-21T06:09:37.471Z,98229.06
2017-11-21T06:12:04.935Z,98229.51
2017-11-21T06:14:32.400Z,98232.45
2017-11-21T06:16:59.887Z,98232.86
2017-11-21T06:19:27.353Z,98234.27
2017-11-21T06:21:54.836Z,98240.47
2017-11-21T06:24:23.181Z,98241.49
2017-11-21T06:26:50.634Z,98241.31
2017-11-21T06:29:18.107Z,98239.98
2017-11-21T06:31:45.587Z,98244.39
2017-11-21T06:34:13.071Z,98247.64
2017-11-21T06:36:40.535Z,98257.30
2017-11-21T06:39:08.022Z,98246.91
2017-11-21T06:41:35.487Z,98247.59
2017-11-21T06:44:02.956Z,98247.13
2017-11-21T06:46:30.448Z,98254.89
2017-11-21T06:48:57.915Z,98254.42
2017-11-21T06:51:25.401Z,98250.22
2017-11-21T06:53:52.882Z,98261.23
2017-11-21T06:56:20.336Z,98258.24
2017-11-21T06:58:47.831Z,98256.39
2017-11-21T07:01:15.291Z,98262.02
2017-11-21T07:03:42.746Z,98261.03
2017-11-21T07:06:10.226Z,98268.30
2017-11-21T07:08:37.718Z,98258.64
2017-11-21T07:11:05.186Z,98264.42
2017-11-21T07:13:32.833Z,98275.20
2017-11-21T07:16:00.292Z,98267.41
2017-11-21T07:18:27.746Z,98278.17
2017-11-21T07:20:55.246Z,98282.65
2017-11-21T07:23:22.735Z,98277.97
2017-11-21T07:25:50.220Z,98274.06
2017-11-21T07:28:17.716Z,98275.58
2017-11-21T07:30:45.181Z,98281.73
2017-11-21T07:33:12.650Z,98284.63
2017-11-21T07:35:40.127Z,98274.94
2017-11-21T07:38:07.590Z,98273.63
2017-11-21T07:40:35.074Z,98272.36
2017-11-21T07:43:02.551Z,98273.08
2017-11-21T07:45:30.000Z,98274.24
2017-11-21T07:47:57.480Z,98269.70
2017-11-21T07:50:24.937Z,98263.98
2017-11-21T07:52:52.471Z,98267.30
2017-11-21T07:55:19.929Z,98268.63
2017-11-21T07:57:47.387Z,98269.96
2017-11-21T08:00:14.870Z,98263.73
2017-11-21T08:02:42.339Z,98274.80
2017-11-21T08:05:09.816Z,98268.04
2017-11-21T08:07:37.316Z,98272.06
2017-11-21T08:10:05.038Z,98273.76
2017-11-21T08:12:32.497Z,98282.67
2017-11-21T08:14:59.966Z,98285.50
2017-11-21T08:17:27.457Z,98293.41
2017-11-21T08:19:54.915Z,98292.19
2017-11-21T08:22:22.399Z,98285.45
2017-11-21T08:24:49.858Z,98276.89
2017-11-21T08:27:17.315Z,98279.89
2017-11-21T08:29:44.790Z,98267.94
2017-11-21T08:32:12.255Z,98278.02
2017-11-21T08:34:39.739Z,98279.37
2017-11-21T08:37:07.182Z,98287.49
2017-11-21T08:39:34.655Z,98293.64
2017-11-21T08:42:02.122Z,98295.48
2017-11-21T08:44:29.579Z,98309.08
2017-11-21T08:46:57.055Z,98297.02
2017-11-21T08:49:24.518Z,98299.84
2017-11-21T08:51:51.966Z,98316.95
2017-11-21T08:54:19.455Z,98319.23
2017-11-21T08:56:46.922Z,98315.20
2017-11-21T08:59:14.397Z,98309.37
2017-11-21T09:01:41.858Z,98316.48
2017-11-21T09:04:09.334Z,98312.02
2017-11-21T09:06:36.786Z,98314.25
2017-11-21T09:09:04.264Z,98310.63
2017-11-21T09:11:31.717Z,98313.52
2017-11-21T09:13:59.199Z,98315.09
2017-11-21T09:16:26.839Z,98315.53
2017-11-21T09:18:54.299Z,98312.70
2017-11-21T09:21:21.771Z,98309.59
2017-11-21T09:23:49.218Z,98311.68
2017-11-21T09:26:16.697Z,98315.41
2017-11-21T09:28:44.163Z,98310.27
2017-11-21T09:31:11.662Z,98312.25
2017-11-21T09:33:39.126Z,98312.40
2017-11-21T09:36:06.622Z,98310.61
2017-11-21T09:38:34.076Z,98306.78
2017-11-21T09:41:01.523Z,98308.45
2017-11-21T09:43:29.006Z,98303.08
2017-11-21T09:45:56.459Z,98295.45
2017-11-21T09:48:23.934Z,98294.03
2017-11-21T09:50:51.386Z,98317.28
2017-11-21T10:00:01.921Z,98301.17
2017-11-21T10:02:29.374Z,98301.91
2017-11-21T10:04:56.996Z,98297.02
2017-11-21T10:07:24.503Z,98298.04
2017-11-21T10:09:51.963Z,98288.44
2017-11-21T10:12:19.414Z,98291.97
2017-11-21T10:14:46.886Z,98293.50
2017-11-21T10:17:14.328Z,98292.28
2017-11-21T10:19:41.792Z,98282.17
2017-11-21T10:22:09.292Z,98279.80
2017-11-21T10:24:36.771Z,98279.02
2017-11-21T10:27:04.225Z,98276.55
2017-11-21T10:29:31.698Z,98272.05
2017-11-21T10:31:59.155Z,98267.42
2017-11-21T10:34:26.629Z,98267.89
2017-11-21T10:36:54.083Z,98263.48
2017-11-21T10:39:21.554Z,98262.34
2017-11-21T10:41:49.063Z,98263.75
2017-11-21T10:44:16.535Z,98255.39
2017-11-21T10:46:43.982Z,98248.37
2017-11-21T10:49:11.449Z,98245.21
2017-11-21T10:51:38.894Z,98251.28
2017-11-21T10:54:06.361Z,98243.05
2017-11-21T10:56:33.832Z,98256.05
2017-11-21T10:59:01.290Z,98255.81
2017-11-21T11:01:28.767Z,98256.83
2017-11-21T11:03:56.221Z,98258.17
2017-11-21T11:06:23.695Z,98247.66
2017-11-21T11:08:51.175Z,98257.91
2017-11-21T11:11:18.628Z,98251.22
2017-11-21T11:13:46.080Z,98254.48
2017-11-21T11:16:13.555Z,98251.83
2017-11-21T11:18:41.016Z,98248.83
2017-11-21T11:21:08.487Z,98249.97
2017-11-21T11:23:35.940Z,98253.23
2017-11-21T11:26:03.442Z,98237.63
2017-11-21T11:28:30.955Z,98240.02
2017-11-21T11:30:58.427Z,98235.52
2017-11-21T11:33:25.883Z,98233.06
2017-11-21T11:35:53.359Z,98233.16
2017-11-21T11:38:20.835Z,98230.25
2017-11-21T11:40:48.279Z,98234.00
2017-11-21T11:43:15.761Z,98228.66
2017-11-21T11:45:43.218Z,98238.73
2017-11-21T11:48:10.697Z,98236.36
2017-11-21T11:50:38.142Z,98237.67
2017-11-21T11:53:05.625Z,98229.77
2017-11-21T11:55:33.082Z,98233.23
2017-11-21T11:58:00.544Z,98236.30
2017-11-21T12:00:28.016Z,98231.11
2017-11-21T12:02:55.503Z,98232.54
2017-11-21T12:05:22.967Z,98228.85
2017-11-21T12:07:50.421Z,98233.36
2017-11-21T12:10:17.989Z,98232.05
2017-11-21T12:12:45.479Z,98223.83
2017-11-21T12:15:12.986Z,98224.41
2017-11-21T12:17:40.493Z,98230.95
2017-11-21T12:20:07.945Z,98228.04
2017-11-21T12:22:35.434Z,98222.27
2017-11-21T12:25:02.913Z,98219.23
2017-11-21T12:27:30.411Z,98224.38
2017-11-21T12:29:57.920Z,98217.20
2017-11-21T12:32:25.387Z,98219.98
2017-11-21T12:34:52.877Z,98219.13
2017-11-21T12:37:20.322Z,98224.70
2017-11-21T12:39:47.797Z,98227.39
2017-11-21T12:42:15.322Z,98225.20
2017-11-21T12:44:43.159Z,98222.69
2017-11-21T12:47:10.628Z,98225.06
2017-11-21T12:49:38.094Z,98229.31
2017-11-21T12:52:05.574Z,98232.41
2017-11-21T12:54:33.059Z,98227.16
2017-11-21T12:57:00.511Z,98225.42
2017-11-21T12:59:28.007Z,98228.79
2017-11-21T13:01:55.462Z,98224.34
2017-11-21T13:04:22.937Z,98223.83
2017-11-21T13:06:50.411Z,98217.13
2017-11-21T13:09:17.887Z,98213.05
2017-11-21T13:11:45.370Z,98215.11
2017-11-21T13:14:12.835Z,98219.06
2017-11-21T13:16:40.329Z,98221.22
2017-11-21T13:19:07.792Z,98213.31
2017-11-21T13:21:35.254Z,98218.86
2017-11-21T13:24:02.810Z,98213.34
2017-11-21T13:26:30.311Z,98218.41
2017-11-21T13:28:57.781Z,98217.42
2017-11-21T13:31:25.477Z,98212.66
2017-11-21T13:33:52.954Z,98217.81
2017-11-21T13:36:20.411Z,98216.08
2017-11-21T13:38:47.898Z,98228.56
2017-11-21T13:41:15.350Z,98223.50
2017-11-21T13:43:42.867Z,98229.44
2017-11-21T13:46:10.320Z,98223.63
2017-11-21T13:48:37.794Z,98217.95
2017-11-21T13:51:05.276Z,98217.09
2017-11-21T13:53:32.750Z,98221.38
2017-11-21T13:56:00.202Z,98212.91
2017-11-21T13:58:28.081Z,98209.31
2017-11-21T14:00:55.609Z,98216.23
2017-11-21T14:03:23.059Z,98213.30
2017-11-21T14:05:50.767Z,98215.70
2017-11-21T14:08:18.231Z,98221.78
2017-11-21T14:10:45.687Z,98217.34
2017-11-21T14:13:13.162Z,98224.41
2017-11-21T14:15:40.622Z,98217.41
2017-11-21T14:18:08.101Z,98217.09
2017-11-21T14:20:35.551Z,98220.46
2017-11-21T14:23:03.027Z,98216.48
2017-11-21T14:25:30.469Z,98221.41
2017-11-21T14:27:57.954Z,98210.60
2017-11-21T14:30:25.404Z,98215.44
2017-11-21T14:32:53.777Z,98209.97
2017-11-21T14:35:21.223Z,98215.64
2017-11-21T14:37:48.720Z,98213.69
2017-11-21T14:40:16.183Z,98215.25
2017-11-21T14:42:43.655Z,98217.48
2017-11-21T14:45:11.138Z,98217.97
2017-11-21T14:47:38.618Z,98208.83
2017-11-21T14:50:06.083Z,98211.14
2017-11-21T14:52:33.714Z,98209.51
2017-11-21T14:55:01.517Z,98205.75
2017-11-21T14:57:28.990Z,98206.42
2017-11-21T14:59:56.451Z,98210.68
2017-11-21T15:02:23.924Z,98214.59
2017-11-21T15:04:52.044Z,98209.58
2017-11-21T15:07:19.518Z,98205.74
2017-11-21T15:09:46.986Z,98212.55
2017-11-21T15:12:14.450Z,98216.66
2017-11-21T15:14:41.923Z,98213.46
2017-11-21T15:17:09.467Z,98208.35
2017-11-21T15:19:36.963Z,98215.08
2017-11-21T15:22:04.534Z,98204.02
2017-11-21T15:24:32.013Z,98214.97
2017-11-21T15:26:59.459Z,98206.65
2017-11-21T15:29:26.913Z,98203.64
2017-11-21T15:31:54.402Z,98208.99
2017-11-21T15:34:21.869Z,98212.03
2017-11-21T15:36:49.340Z,98208.45
2017-11-21T15:39:16.794Z,98215.04
2017-11-21T15:41:44.267Z,98212.07
2017-11-21T15:44:11.744Z,98213.70
2017-11-21T15:46:39.218Z,98213.05
2017-11-21T15:49:06.698Z,98217.75
2017-11-21T15:51:34.166Z,98203.78
2017-11-21T15:54:01.621Z,98209.03
2017-11-21T15:56:29.105Z,98215.08
2017-11-21T15:58:56.566Z,98215.38
2017-11-21T16:01:24.096Z,98211.75
2017-11-21T16:03:51.561Z,98213.48
2017-11-21T16:06:19.054Z,98235.13
2017-11-21T16:08:46.539Z,98227.03
2017-11-21T16:11:14.024Z,98233.42
2017-11-21T16:13:41.479Z,98226.90
2017-11-21T16:16:09.003Z,98222.48
2017-11-21T16:18:36.458Z,98223.41
2017-11-21T16:21:03.923Z,98225.49
2017-11-21T16:23:31.458Z,98229.67
2017-11-21T16:25:58.986Z,98227.19
2017-11-21T16:28:26.462Z,98223.20
2017-11-21T16:30:53.965Z,98224.94
2017-11-21T16:33:21.426Z,98221.41
2017-11-21T16:35:48.902Z,98216.74
2017-11-21T16:38:16.386Z,98216.09
2017-11-21T16:40:43.915Z,98214.75
2017-11-21T16:43:11.395Z,98221.28
2017-11-21T16:45:38.895Z,98227.03
2017-11-21T16:48:06.394Z,98225.42
2017-11-21T16:50:33.858Z,98220.92
2017-11-21T16:53:03.183Z,98219.09
2017-11-21T16:55:30.769Z,98219.03
2017-11-21T16:57:58.269Z,98221.80
2017-11-21T17:00:25.733Z,98218.27
2017-11-21T17:02:53.216Z,98215.83
2017-11-21T17:05:20.683Z,98231.83
2017-11-21T17:07:48.197Z,98230.00
2017-11-21T17:10:15.767Z,98226.73
2017-11-21T17:12:43.235Z,98227.58
2017-11-21T17:15:10.725Z,98227.57
2017-11-21T17:17:38.228Z,98223.59
2017-11-21T17:20:05.687Z,98216.55
2017-11-21T17:22:33.177Z,98215.84
2017-11-21T17:25:00.638Z,98218.73
2017-11-21T17:27:28.150Z,98224.16
2017-11-21T17:29:55.630Z,98219.58
2017-11-21T17:32:23.097Z,98221.45
2017-11-21T17:34:50.574Z,98220.73
2017-11-21T17:37:18.068Z,98218.94
2017-11-21T17:39:45.546Z,98222.45
2017-11-21T17:42:13.031Z,98222.84
2017-11-21T17:44:40.527Z,98222.20
2017-11-21T17:47:08.001Z,98215.51
2017-11-21T17:49:35.486Z,98224.11
2017-11-21T17:52:02.947Z,98226.61
2017-11-21T17:54:30.429Z,98226.83
2017-11-21T17:56:57.919Z,98214.95
2017-11-21T17:59:25.382Z,98225.42
2017-11-21T18:01:52.862Z,98215.42
2017-11-21T18:04:20.319Z,98223.69
2017-11-21T18:06:47.805Z,98221.20
2017-11-21T18:09:15.291Z,98221.20
2017-11-21T18:11:42.775Z,98218.49
2017-11-21T18:14:10.261Z,98213.06
2017-11-21T18:16:37.723Z,98214.02
2017-11-21T18:19:05.188Z,98209.84
2017-11-21T18:21:32.671Z,98207.16
2017-11-21T18:24:00.156Z,98203.97
2017-11-21T18:26:27.977Z,98198.77
2017-11-21T18:28:55.450Z,98195.14
2017-11-21T18:31:22.940Z,98181.98
2017-11-21T18:33:50.432Z,98182.77
2017-11-21T18:36:17.902Z,98186.02
2017-11-21T18:38:45.377Z,98187.35
2017-11-21T18:41:12.867Z,98186.01
2017-11-21T18:43:40.511Z,98185.70
2017-11-21T18:46:07.970Z,98198.14
2017-11-21T18:48:35.426Z,98194.11
2017-11-21T18:51:03.180Z,98187.23
2017-11-21T18:53:30.700Z,98193.77
2017-11-21T18:55:58.190Z,98200.09
2017-11-21T18:58:25.654Z,98192.64
2017-11-21T19:00:53.114Z,98198.61
2017-11-21T19:03:20.587Z,98189.81
2017-11-21T19:05:48.084Z,98183.17
2017-11-21T19:08:15.562Z,98187.22
2017-11-21T19:10:44.003Z,98194.98
2017-11-21T19:13:11.484Z,98189.05
2017-11-21T19:15:38.941Z,98184.59
2017-11-21T19:18:06.406Z,98183.39
2017-11-21T19:20:33.909Z,98184.03
2017-11-21T19:23:01.447Z,98185.91
2017-11-21T19:25:28.946Z,98194.55
2017-11-21T19:27:56.427Z,98183.07
2017-11-21T19:30:23.899Z,98170.63
2017-11-21T19:32:51.361Z,98180.91
2017-11-21T19:35:18.876Z,98187.55
2017-11-21T19:37:46.359Z,98188.47
2017-11-21T19:40:13.869Z,98186.67
2017-11-21T19:42:41.330Z,98178.84
2017-11-21T19:45:08.828Z,98187.23
2017-11-21T19:47:36.316Z,98182.84
2017-11-21T19:50:03.819Z,98184.39
2017-11-21T19:52:31.285Z,98186.47
2017-11-21T19:54:58.753Z,98188.77
2017-11-21T19:57:26.225Z,98186.75
2017-11-21T19:59:53.719Z,98193.91
2017-11-21T20:02:21.317Z,98182.09
2017-11-21T20:04:48.791Z,98184.86
2017-11-21T20:07:16.250Z,98183.38
2017-11-21T20:09:43.742Z,98189.27
2017-11-21T20:12:11.251Z,98183.09
2017-11-21T20:14:38.728Z,98188.22
2017-11-21T20:17:06.202Z,98189.78
2017-11-21T20:19:33.672Z,98178.13
2017-11-21T20:22:01.342Z,98179.70
2017-11-21T20:24:28.811Z,98182.45
2017-11-21T20:26:56.294Z,98181.19
2017-11-21T20:29:23.762Z,98180.95
2017-11-21T20:31:51.261Z,98175.14
2017-11-21T20:34:18.735Z,98183.42
2017-11-21T20:36:46.202Z,98184.34
2017-11-21T20:39:13.696Z,98179.81
2017-11-21T20:41:41.187Z,98176.93
2017-11-21T20:44:08.661Z,98176.38
2017-11-21T20:46:36.138Z,98177.66
2017-11-21T20:49:03.602Z,98184.55
2017-11-21T20:51:31.099Z,98186.64
2017-11-21T20:53:58.573Z,98186.80
2017-11-21T20:56:26.068Z,98179.49
2017-11-21T20:58:53.527Z,98184.98
2017-11-21T21:01:21.895Z,98189.59
2017-11-21T21:03:49.358Z,98182.37
2017-11-21T21:06:16.852Z,98176.73
2017-11-21T21:08:44.334Z,98183.52
2017-11-21T21:11:11.799Z,98179.92
2017-11-21T21:13:39.270Z,98171.53
2017-11-21T21:16:06.751Z,98167.93
2017-11-21T21:18:34.241Z,98184.00
2017-11-21T21:21:01.723Z,98189.98
2017-11-21T21:23:29.208Z,98187.56
2017-11-21T21:25:56.693Z,98190.11
2017-11-21T21:28:24.156Z,98192.13
2017-11-21T21:30:51.614Z,98193.73
2017-11-21T21:33:19.101Z,98196.02
2017-11-21T21:35:46.566Z,98190.08
2017-11-21T21:38:14.028Z,98185.44
2017-11-21T21:40:41.505Z,98176.17
2017-11-21T21:43:08.965Z,98180.52
2017-11-21T21:45:36.430Z,98178.23
2017-11-21T21:48:03.923Z,98178.33
2017-11-21T21:50:31.390Z,98171.08
2017-11-21T21:52:58.866Z,98170.95
2017-11-21T21:55:26.328Z,98172.39
2017-11-21T21:57:53.815Z,98175.45
2017-11-21T22:00:21.271Z,98170.50
2017-11-21T22:02:48.771Z,98174.84
2017-11-21T22:05:16.230Z,98165.73
2017-11-21T22:07:43.699Z,98165.53
2017-11-21T22:10:11.192Z,98165.66
2017-11-21T22:12:38.664Z,98171.02
2017-11-21T22:15:06.146Z,98169.55
2017-11-21T22:17:33.651Z,98161.48
2017-11-21T22:20:01.115Z,98165.77
2017-11-21T22:22:28.612Z,98163.55
2017-11-21T22:24:56.086Z,98153.56
2017-11-21T22:27:23.547Z,98154.34
2017-11-21T22:29:51.006Z,98164.10
2017-11-21T22:32:18.501Z,98163.08
2017-11-21T22:34:45.958Z,98157.49
2017-11-21T22:37:13.442Z,98170.48
2017-11-21T22:39:40.908Z,98162.25
2017-11-21T22:42:08.380Z,98161.05
2017-11-21T22:44:35.854Z,98156.45
2017-11-21T22:47:03.305Z,98166.55
2017-11-21T22:49:30.792Z,98163.53
2017-11-21T22:51:58.250Z,98163.80
2017-11-21T22:54:25.738Z,98165.33
2017-11-21T22:56:53.229Z,98166.32
2017-11-21T22:59:20.687Z,98153.66
2017-11-21T23:01:48.164Z,98162.81
2017-11-21T23:04:15.619Z,98156.64
2017-11-21T23:06:43.101Z,98154.41
2017-11-21T23:09:10.585Z,98156.58
2017-11-21T23:11:38.051Z,98161.56
2017-11-21T23:14:05.553Z,98158.04
2017-11-21T23:16:33.021Z,98152.48
2017-11-21T23:19:00.479Z,98143.42
2017-11-21T23:21:27.963Z,98144.20
2017-11-21T23:23:55.423Z,98130.60
2017-11-21T23:26:22.906Z,98136.48
2017-11-21T23:28:50.396Z,98135.61
2017-11-21T23:31:17.867Z,98136.70
2017-11-21T23:33:45.356Z,98131.98
2017-11-21T23:36:12.818Z,98127.67
2017-11-21T23:38:40.281Z,98126.92
2017-11-21T23:41:07.774Z,98124.09
2017-11-21T23:43:35.233Z,98131.73
2017-11-21T23:46:02.695Z,98132.25
2017-11-21T23:48:30.175Z,98139.08
2017-11-21T23:50:57.640Z,98143.77
2017-11-21T23:53:25.127Z,98142.71
2017-11-21T23:55:52.583Z,98152.03
2017-11-21T23:58:20.071Z,98156.75
